sensor_id;sensor_type;location;lat;lon;timestamp;P1;durP1;ratioP1;P2;durP2;ratioP2
20621;SDS011;10470;42.670;23.354;2023-07-08T00:01:24;19.67;;;15.73;;
20621;SDS011;10470;42.670;23.354;2023-07-08T00:03:52;17.53;;;15.20;;
20621;SDS011;10470;42.670;23.354;2023-07-08T00:06:24;18.73;;;15.40;;
20621;SDS011;10470;42.670;23.354;2023-07-08T00:08:56;18.07;;;16.17;;
20621;SDS011;10470;42.670;23.354;2023-07-08T00:11:26;18.33;;;16.30;;
20621;SDS011;10470;42.670;23.354;2023-07-08T00:13:57;18.67;;;16.67;;
20621;SDS011;10470;42.670;23.354;2023-07-08T00:16:27;19.27;;;16.67;;
20621;SDS011;10470;42.670;23.354;2023-07-08T00:18:55;18.97;;;16.73;;
20621;SDS011;10470;42.670;23.354;2023-07-08T00:21:25;20.67;;;16.47;;
20621;SDS011;10470;42.670;23.354;2023-07-08T00:23:56;18.57;;;16.53;;
20621;SDS011;10470;42.670;23.354;2023-07-08T00:26:35;17.83;;;15.93;;
20621;SDS011;10470;42.670;23.354;2023-07-08T00:29:09;18.73;;;16.73;;
20621;SDS011;10470;42.670;23.354;2023-07-08T00:31:39;19.60;;;17.50;;
20621;SDS011;10470;42.670;23.354;2023-07-08T00:34:09;22.40;;;16.33;;
20621;SDS011;10470;42.670;23.354;2023-07-08T00:36:40;17.33;;;15.57;;
20621;SDS011;10470;42.670;23.354;2023-07-08T00:39:13;17.07;;;15.23;;
20621;SDS011;10470;42.670;23.354;2023-07-08T00:41:44;19.97;;;16.50;;
20621;SDS011;10470;42.670;23.354;2023-07-08T00:44:14;18.50;;;16.57;;
20621;SDS011;10470;42.670;23.354;2023-07-08T00:52:17;18.37;;;16.47;;
20621;SDS011;10470;42.670;23.354;2023-07-08T00:54:50;18.03;;;16.13;;
20621;SDS011;10470;42.670;23.354;2023-07-08T00:57:37;18.50;;;16.53;;
20621;SDS011;10470;42.670;23.354;2023-07-08T01:00:10;20.77;;;16.83;;
20621;SDS011;10470;42.670;23.354;2023-07-08T01:02:50;17.33;;;14.93;;
20621;SDS011;10470;42.670;23.354;2023-07-08T01:05:24;18.00;;;16.20;;
20621;SDS011;10470;42.670;23.354;2023-07-08T01:07:57;16.93;;;15.33;;
20621;SDS011;10470;42.670;23.354;2023-07-08T01:10:33;17.77;;;16.00;;
20621;SDS011;10470;42.670;23.354;2023-07-08T01:13:17;16.47;;;14.73;;
20621;SDS011;10470;42.670;23.354;2023-07-08T01:15:47;18.10;;;15.90;;
20621;SDS011;10470;42.670;23.354;2023-07-08T01:18:22;22.33;;;15.13;;
20621;SDS011;10470;42.670;23.354;2023-07-08T01:20:52;17.60;;;15.10;;
20621;SDS011;10470;42.670;23.354;2023-07-08T01:23:23;18.20;;;15.47;;
20621;SDS011;10470;42.670;23.354;2023-07-08T01:25:54;18.57;;;15.27;;
20621;SDS011;10470;42.670;23.354;2023-07-08T01:28:26;17.97;;;15.47;;
20621;SDS011;10470;42.670;23.354;2023-07-08T01:30:56;16.80;;;15.10;;
20621;SDS011;10470;42.670;23.354;2023-07-08T01:33:27;16.77;;;15.00;;
20621;SDS011;10470;42.670;23.354;2023-07-08T01:35:58;17.53;;;14.97;;
20621;SDS011;10470;42.670;23.354;2023-07-08T01:38:29;17.37;;;14.93;;
20621;SDS011;10470;42.670;23.354;2023-07-08T01:40:59;16.53;;;14.27;;
20621;SDS011;10470;42.670;23.354;2023-07-08T01:43:28;16.70;;;14.43;;
20621;SDS011;10470;42.670;23.354;2023-07-08T01:45:56;17.57;;;15.13;;
20621;SDS011;10470;42.670;23.354;2023-07-08T01:48:33;16.73;;;15.00;;
20621;SDS011;10470;42.670;23.354;2023-07-08T01:51:06;16.50;;;14.80;;
20621;SDS011;10470;42.670;23.354;2023-07-08T01:53:36;17.97;;;15.67;;
20621;SDS011;10470;42.670;23.354;2023-07-08T01:56:10;19.37;;;15.60;;
20621;SDS011;10470;42.670;23.354;2023-07-08T01:58:40;16.60;;;14.67;;
20621;SDS011;10470;42.670;23.354;2023-07-08T02:01:10;16.23;;;14.63;;
20621;SDS011;10470;42.670;23.354;2023-07-08T02:03:38;16.20;;;14.70;;
20621;SDS011;10470;42.670;23.354;2023-07-08T02:06:08;19.40;;;14.77;;
20621;SDS011;10470;42.670;23.354;2023-07-08T02:08:37;19.57;;;14.73;;
20621;SDS011;10470;42.670;23.354;2023-07-08T02:11:07;16.63;;;14.93;;
20621;SDS011;10470;42.670;23.354;2023-07-08T02:13:36;15.37;;;13.73;;
20621;SDS011;10470;42.670;23.354;2023-07-08T02:16:06;19.63;;;14.27;;
20621;SDS011;10470;42.670;23.354;2023-07-08T02:18:35;15.40;;;13.80;;
20621;SDS011;10470;42.670;23.354;2023-07-08T02:21:05;15.23;;;13.63;;
20621;SDS011;10470;42.670;23.354;2023-07-08T02:23:34;16.00;;;14.30;;
20621;SDS011;10470;42.670;23.354;2023-07-08T02:26:03;15.50;;;13.90;;
20621;SDS011;10470;42.670;23.354;2023-07-08T02:28:31;16.10;;;13.77;;
20621;SDS011;10470;42.670;23.354;2023-07-08T02:31:02;15.30;;;13.70;;
20621;SDS011;10470;42.670;23.354;2023-07-08T02:33:33;15.93;;;13.50;;
20621;SDS011;10470;42.670;23.354;2023-07-08T02:36:03;15.63;;;13.67;;
20621;SDS011;10470;42.670;23.354;2023-07-08T02:38:31;14.73;;;13.27;;
20621;SDS011;10470;42.670;23.354;2023-07-08T02:41:01;15.07;;;13.43;;
20621;SDS011;10470;42.670;23.354;2023-07-08T02:43:32;15.47;;;13.83;;
20621;SDS011;10470;42.670;23.354;2023-07-08T02:46:03;15.63;;;14.00;;
20621;SDS011;10470;42.670;23.354;2023-07-08T02:48:31;15.60;;;14.10;;
20621;SDS011;10470;42.670;23.354;2023-07-08T02:51:02;14.47;;;13.03;;
20621;SDS011;10470;42.670;23.354;2023-07-08T02:53:33;16.67;;;14.37;;
20621;SDS011;10470;42.670;23.354;2023-07-08T02:56:03;15.50;;;14.00;;
20621;SDS011;10470;42.670;23.354;2023-07-08T02:58:32;15.60;;;13.93;;
20621;SDS011;10470;42.670;23.354;2023-07-08T03:01:03;16.17;;;14.40;;
20621;SDS011;10470;42.670;23.354;2023-07-08T03:03:31;18.33;;;14.20;;
20621;SDS011;10470;42.670;23.354;2023-07-08T03:06:03;17.40;;;14.47;;
20621;SDS011;10470;42.670;23.354;2023-07-08T03:08:34;15.83;;;14.33;;
20621;SDS011;10470;42.670;23.354;2023-07-08T03:11:05;16.53;;;13.70;;
20621;SDS011;10470;42.670;23.354;2023-07-08T03:13:36;17.23;;;14.27;;
20621;SDS011;10470;42.670;23.354;2023-07-08T03:16:07;14.70;;;13.20;;
20621;SDS011;10470;42.670;23.354;2023-07-08T03:18:41;15.10;;;13.60;;
20621;SDS011;10470;42.670;23.354;2023-07-08T03:21:16;15.07;;;13.60;;
20621;SDS011;10470;42.670;23.354;2023-07-08T03:23:47;15.47;;;13.67;;
20621;SDS011;10470;42.670;23.354;2023-07-08T03:26:20;16.33;;;13.70;;
20621;SDS011;10470;42.670;23.354;2023-07-08T03:28:50;14.47;;;12.60;;
20621;SDS011;10470;42.670;23.354;2023-07-08T03:31:21;14.47;;;12.87;;
20621;SDS011;10470;42.670;23.354;2023-07-08T03:33:52;17.00;;;12.60;;
20621;SDS011;10470;42.670;23.354;2023-07-08T03:36:20;13.43;;;12.07;;
20621;SDS011;10470;42.670;23.354;2023-07-08T03:38:52;14.53;;;12.10;;
20621;SDS011;10470;42.670;23.354;2023-07-08T03:41:23;12.10;;;11.00;;
20621;SDS011;10470;42.670;23.354;2023-07-08T03:43:53;15.77;;;11.40;;
20621;SDS011;10470;42.670;23.354;2023-07-08T03:46:22;16.23;;;11.67;;
20621;SDS011;10470;42.670;23.354;2023-07-08T03:48:52;16.23;;;11.93;;
20621;SDS011;10470;42.670;23.354;2023-07-08T03:53:54;11.83;;;10.53;;
20621;SDS011;10470;42.670;23.354;2023-07-08T03:56:24;12.10;;;10.53;;
20621;SDS011;10470;42.670;23.354;2023-07-08T03:58:54;12.73;;;10.57;;
20621;SDS011;10470;42.670;23.354;2023-07-08T04:01:23;12.97;;;11.03;;
20621;SDS011;10470;42.670;23.354;2023-07-08T04:03:55;13.40;;;10.60;;
20621;SDS011;10470;42.670;23.354;2023-07-08T04:06:26;12.60;;;10.60;;
20621;SDS011;10470;42.670;23.354;2023-07-08T04:08:57;9.83;;;8.83;;
20621;SDS011;10470;42.670;23.354;2023-07-08T04:11:26;12.13;;;10.33;;
20621;SDS011;10470;42.670;23.354;2023-07-08T04:13:54;13.13;;;10.03;;
20621;SDS011;10470;42.670;23.354;2023-07-08T04:16:27;15.80;;;10.30;;
20621;SDS011;10470;42.670;23.354;2023-07-08T04:18:57;10.83;;;9.73;;
20621;SDS011;10470;42.670;23.354;2023-07-08T04:21:25;12.33;;;10.17;;
20621;SDS011;10470;42.670;23.354;2023-07-08T04:23:56;12.07;;;9.73;;
20621;SDS011;10470;42.670;23.354;2023-07-08T04:26:25;11.83;;;10.37;;
20621;SDS011;10470;42.670;23.354;2023-07-08T04:28:53;11.70;;;9.87;;
20621;SDS011;10470;42.670;23.354;2023-07-08T04:31:22;12.87;;;10.00;;
20621;SDS011;10470;42.670;23.354;2023-07-08T04:33:50;11.87;;;10.43;;
20621;SDS011;10470;42.670;23.354;2023-07-08T04:36:19;11.70;;;10.27;;
20621;SDS011;10470;42.670;23.354;2023-07-08T04:38:50;14.03;;;10.97;;
20621;SDS011;10470;42.670;23.354;2023-07-08T04:41:22;11.17;;;10.07;;
20621;SDS011;10470;42.670;23.354;2023-07-08T04:43:50;11.50;;;10.30;;
20621;SDS011;10470;42.670;23.354;2023-07-08T04:47:04;12.43;;;10.40;;
20621;SDS011;10470;42.670;23.354;2023-07-08T04:49:15;11.60;;;10.40;;
20621;SDS011;10470;42.670;23.354;2023-07-08T04:51:42;11.33;;;10.00;;
20621;SDS011;10470;42.670;23.354;2023-07-08T04:54:11;13.47;;;10.27;;
20621;SDS011;10470;42.670;23.354;2023-07-08T04:56:41;11.67;;;10.47;;
20621;SDS011;10470;42.670;23.354;2023-07-08T04:59:13;15.67;;;10.43;;
20621;SDS011;10470;42.670;23.354;2023-07-08T05:01:46;15.37;;;10.00;;
20621;SDS011;10470;42.670;23.354;2023-07-08T05:04:17;12.20;;;10.93;;
20621;SDS011;10470;42.670;23.354;2023-07-08T05:06:50;11.83;;;10.40;;
20621;SDS011;10470;42.670;23.354;2023-07-08T05:09:22;11.10;;;9.90;;
20621;SDS011;10470;42.670;23.354;2023-07-08T05:11:54;11.23;;;9.67;;
20621;SDS011;10470;42.670;23.354;2023-07-08T05:14:22;11.17;;;10.07;;
20621;SDS011;10470;42.670;23.354;2023-07-08T05:16:51;10.87;;;9.77;;
20621;SDS011;10470;42.670;23.354;2023-07-08T05:19:20;11.50;;;9.23;;
20621;SDS011;10470;42.670;23.354;2023-07-08T05:21:52;12.33;;;10.30;;
20621;SDS011;10470;42.670;23.354;2023-07-08T05:24:23;10.80;;;9.77;;
20621;SDS011;10470;42.670;23.354;2023-07-08T05:26:52;10.80;;;9.67;;
20621;SDS011;10470;42.670;23.354;2023-07-08T05:29:21;12.33;;;9.00;;
20621;SDS011;10470;42.670;23.354;2023-07-08T05:31:49;10.30;;;9.20;;
20621;SDS011;10470;42.670;23.354;2023-07-08T05:34:19;12.60;;;9.80;;
20621;SDS011;10470;42.670;23.354;2023-07-08T05:36:48;10.60;;;9.37;;
20621;SDS011;10470;42.670;23.354;2023-07-08T05:39:17;13.37;;;9.97;;
20621;SDS011;10470;42.670;23.354;2023-07-08T05:41:46;10.70;;;8.80;;
20621;SDS011;10470;42.670;23.354;2023-07-08T05:44:15;10.43;;;9.13;;
20621;SDS011;10470;42.670;23.354;2023-07-08T05:46:44;10.73;;;8.97;;
20621;SDS011;10470;42.670;23.354;2023-07-08T05:49:14;10.00;;;8.53;;
20621;SDS011;10470;42.670;23.354;2023-07-08T05:51:45;9.70;;;8.73;;
20621;SDS011;10470;42.670;23.354;2023-07-08T05:54:14;9.90;;;8.90;;
20621;SDS011;10470;42.670;23.354;2023-07-08T05:56:43;9.40;;;8.43;;
20621;SDS011;10470;42.670;23.354;2023-07-08T05:59:12;10.10;;;9.00;;
20621;SDS011;10470;42.670;23.354;2023-07-08T06:01:40;10.10;;;9.00;;
20621;SDS011;10470;42.670;23.354;2023-07-08T06:04:09;11.43;;;8.83;;
20621;SDS011;10470;42.670;23.354;2023-07-08T06:06:37;9.43;;;8.53;;
20621;SDS011;10470;42.670;23.354;2023-07-08T06:09:06;10.87;;;8.83;;
20621;SDS011;10470;42.670;23.354;2023-07-08T06:11:35;9.83;;;8.93;;
20621;SDS011;10470;42.670;23.354;2023-07-08T06:14:03;9.73;;;8.67;;
20621;SDS011;10470;42.670;23.354;2023-07-08T06:16:32;12.30;;;9.50;;
20621;SDS011;10470;42.670;23.354;2023-07-08T06:19:04;15.07;;;10.60;;
20621;SDS011;10470;42.670;23.354;2023-07-08T06:21:33;11.27;;;9.53;;
20621;SDS011;10470;42.670;23.354;2023-07-08T06:24:02;24.03;;;12.80;;
20621;SDS011;10470;42.670;23.354;2023-07-08T06:26:31;34.90;;;15.70;;
20621;SDS011;10470;42.670;23.354;2023-07-08T06:28:59;10.57;;;8.47;;
20621;SDS011;10470;42.670;23.354;2023-07-08T06:31:29;11.70;;;9.17;;
20621;SDS011;10470;42.670;23.354;2023-07-08T06:33:57;11.47;;;9.13;;
20621;SDS011;10470;42.670;23.354;2023-07-08T06:36:26;21.47;;;11.67;;
20621;SDS011;10470;42.670;23.354;2023-07-08T06:38:55;11.40;;;8.37;;
20621;SDS011;10470;42.670;23.354;2023-07-08T06:41:24;10.87;;;9.43;;
20621;SDS011;10470;42.670;23.354;2023-07-08T06:43:52;9.47;;;7.23;;
20621;SDS011;10470;42.670;23.354;2023-07-08T06:46:21;10.37;;;7.87;;
20621;SDS011;10470;42.670;23.354;2023-07-08T06:48:50;10.03;;;7.80;;
20621;SDS011;10470;42.670;23.354;2023-07-08T06:51:20;11.33;;;8.47;;
20621;SDS011;10470;42.670;23.354;2023-07-08T06:53:48;9.93;;;8.53;;
20621;SDS011;10470;42.670;23.354;2023-07-08T06:56:17;9.57;;;8.33;;
20621;SDS011;10470;42.670;23.354;2023-07-08T06:58:46;8.43;;;7.57;;
20621;SDS011;10470;42.670;23.354;2023-07-08T07:01:14;10.53;;;8.50;;
20621;SDS011;10470;42.670;23.354;2023-07-08T07:03:44;10.83;;;8.30;;
20621;SDS011;10470;42.670;23.354;2023-07-08T07:06:12;10.17;;;8.23;;
20621;SDS011;10470;42.670;23.354;2023-07-08T07:08:42;10.67;;;8.20;;
20621;SDS011;10470;42.670;23.354;2023-07-08T07:11:10;11.53;;;9.73;;
20621;SDS011;10470;42.670;23.354;2023-07-08T07:13:40;16.60;;;13.10;;
20621;SDS011;10470;42.670;23.354;2023-07-08T07:16:08;10.00;;;7.60;;
20621;SDS011;10470;42.670;23.354;2023-07-08T07:18:37;10.93;;;7.50;;
20621;SDS011;10470;42.670;23.354;2023-07-08T07:21:06;12.03;;;8.10;;
20621;SDS011;10470;42.670;23.354;2023-07-08T07:23:36;9.53;;;7.73;;
20621;SDS011;10470;42.670;23.354;2023-07-08T07:26:05;10.77;;;8.77;;
20621;SDS011;10470;42.670;23.354;2023-07-08T07:28:34;8.73;;;7.93;;
20621;SDS011;10470;42.670;23.354;2023-07-08T07:31:03;10.17;;;7.80;;
20621;SDS011;10470;42.670;23.354;2023-07-08T07:33:35;9.00;;;8.07;;
20621;SDS011;10470;42.670;23.354;2023-07-08T07:36:05;8.97;;;7.63;;
20621;SDS011;10470;42.670;23.354;2023-07-08T07:38:34;19.03;;;7.67;;
20621;SDS011;10470;42.670;23.354;2023-07-08T07:41:02;9.13;;;8.23;;
20621;SDS011;10470;42.670;23.354;2023-07-08T07:43:34;8.23;;;7.43;;
20621;SDS011;10470;42.670;23.354;2023-07-08T07:46:04;8.60;;;7.70;;
20621;SDS011;10470;42.670;23.354;2023-07-08T07:48:33;8.63;;;7.70;;
20621;SDS011;10470;42.670;23.354;2023-07-08T07:51:01;8.70;;;6.97;;
20621;SDS011;10470;42.670;23.354;2023-07-08T07:53:31;7.23;;;6.53;;
20621;SDS011;10470;42.670;23.354;2023-07-08T07:56:01;10.80;;;7.87;;
20621;SDS011;10470;42.670;23.354;2023-07-08T07:58:30;8.53;;;7.63;;
20621;SDS011;10470;42.670;23.354;2023-07-08T08:01:01;8.80;;;7.97;;
20621;SDS011;10470;42.670;23.354;2023-07-08T08:03:31;11.13;;;8.07;;
20621;SDS011;10470;42.670;23.354;2023-07-08T08:05:59;8.30;;;7.50;;
20621;SDS011;10470;42.670;23.354;2023-07-08T08:08:28;9.00;;;8.10;;
20621;SDS011;10470;42.670;23.354;2023-07-08T08:10:57;8.60;;;7.80;;
20621;SDS011;10470;42.670;23.354;2023-07-08T08:13:26;8.07;;;7.27;;
20621;SDS011;10470;42.670;23.354;2023-07-08T08:15:55;8.03;;;7.30;;
20621;SDS011;10470;42.670;23.354;2023-07-08T08:18:27;8.60;;;7.30;;
20621;SDS011;10470;42.670;23.354;2023-07-08T08:20:56;7.77;;;7.00;;
20621;SDS011;10470;42.670;23.354;2023-07-08T08:23:26;7.50;;;6.80;;
20621;SDS011;10470;42.670;23.354;2023-07-08T08:25:55;9.83;;;7.30;;
20621;SDS011;10470;42.670;23.354;2023-07-08T08:28:25;7.90;;;7.10;;
20621;SDS011;10470;42.670;23.354;2023-07-08T08:30:54;9.47;;;7.03;;
20621;SDS011;10470;42.670;23.354;2023-07-08T08:33:23;8.63;;;7.80;;
20621;SDS011;10470;42.670;23.354;2023-07-08T08:35:53;9.60;;;7.87;;
20621;SDS011;10470;42.670;23.354;2023-07-08T08:38:22;9.50;;;8.53;;
20621;SDS011;10470;42.670;23.354;2023-07-08T08:40:51;8.77;;;7.97;;
20621;SDS011;10470;42.670;23.354;2023-07-08T08:43:28;7.17;;;6.47;;
20621;SDS011;10470;42.670;23.354;2023-07-08T08:48:41;8.73;;;7.93;;
20621;SDS011;10470;42.670;23.354;2023-07-08T08:51:24;9.20;;;7.87;;
20621;SDS011;10470;42.670;23.354;2023-07-08T08:53:56;10.37;;;7.67;;
20621;SDS011;10470;42.670;23.354;2023-07-08T08:56:28;9.60;;;8.13;;
20621;SDS011;10470;42.670;23.354;2023-07-08T09:01:42;8.50;;;7.60;;
20621;SDS011;10470;42.670;23.354;2023-07-08T09:04:22;9.63;;;7.03;;
20621;SDS011;10470;42.670;23.354;2023-07-08T09:06:58;8.97;;;7.60;;
20621;SDS011;10470;42.670;23.354;2023-07-08T09:09:35;7.80;;;7.00;;
20621;SDS011;10470;42.670;23.354;2023-07-08T09:12:12;8.00;;;7.23;;
20621;SDS011;10470;42.670;23.354;2023-07-08T09:14:46;7.87;;;7.17;;
20621;SDS011;10470;42.670;23.354;2023-07-08T09:22:44;7.37;;;6.37;;
20621;SDS011;10470;42.670;23.354;2023-07-08T09:25:43;9.67;;;7.20;;
20621;SDS011;10470;42.670;23.354;2023-07-08T09:28:18;8.00;;;7.20;;
20621;SDS011;10470;42.670;23.354;2023-07-08T09:30:48;8.03;;;7.27;;
20621;SDS011;10470;42.670;23.354;2023-07-08T09:33:21;8.93;;;6.57;;
20621;SDS011;10470;42.670;23.354;2023-07-08T09:35:53;7.83;;;7.03;;
20621;SDS011;10470;42.670;23.354;2023-07-08T09:38:23;9.63;;;7.10;;
20621;SDS011;10470;42.670;23.354;2023-07-08T09:40:53;9.87;;;7.43;;
20621;SDS011;10470;42.670;23.354;2023-07-08T09:43:24;7.30;;;6.60;;
20621;SDS011;10470;42.670;23.354;2023-07-08T09:45:59;10.33;;;6.93;;
20621;SDS011;10470;42.670;23.354;2023-07-08T09:48:33;6.90;;;6.30;;
20621;SDS011;10470;42.670;23.354;2023-07-08T09:51:06;8.80;;;6.97;;
20621;SDS011;10470;42.670;23.354;2023-07-08T09:53:36;6.93;;;6.23;;
20621;SDS011;10470;42.670;23.354;2023-07-08T09:56:06;6.63;;;6.03;;
20621;SDS011;10470;42.670;23.354;2023-07-08T09:58:39;6.93;;;6.23;;
20621;SDS011;10470;42.670;23.354;2023-07-08T10:01:19;7.80;;;6.10;;
20621;SDS011;10470;42.670;23.354;2023-07-08T10:03:57;6.87;;;6.17;;
20621;SDS011;10470;42.670;23.354;2023-07-08T10:06:28;6.97;;;6.30;;
20621;SDS011;10470;42.670;23.354;2023-07-08T10:09:04;6.40;;;5.90;;
20621;SDS011;10470;42.670;23.354;2023-07-08T10:11:44;8.30;;;6.40;;
20621;SDS011;10470;42.670;23.354;2023-07-08T10:16:53;7.80;;;5.50;;
20621;SDS011;10470;42.670;23.354;2023-07-08T10:19:22;6.83;;;5.70;;
20621;SDS011;10470;42.670;23.354;2023-07-08T10:33:01;6.77;;;6.03;;
20621;SDS011;10470;42.670;23.354;2023-07-08T10:35:58;6.67;;;5.90;;
20621;SDS011;10470;42.670;23.354;2023-07-08T10:42:01;12.13;;;8.03;;
20621;SDS011;10470;42.670;23.354;2023-07-08T10:50:17;6.00;;;5.40;;
20621;SDS011;10470;42.670;23.354;2023-07-08T11:04:26;6.37;;;5.77;;
20621;SDS011;10470;42.670;23.354;2023-07-08T11:07:19;5.73;;;5.23;;
20621;SDS011;10470;42.670;23.354;2023-07-08T11:09:53;5.60;;;4.57;;
20621;SDS011;10470;42.670;23.354;2023-07-08T11:15:28;5.00;;;4.60;;
20621;SDS011;10470;42.670;23.354;2023-07-08T11:18:16;4.87;;;4.47;;
20621;SDS011;10470;42.670;23.354;2023-07-08T11:20:56;4.63;;;4.33;;
20621;SDS011;10470;42.670;23.354;2023-07-08T11:23:33;5.17;;;4.63;;
20621;SDS011;10470;42.670;23.354;2023-07-08T11:26:28;5.27;;;4.77;;
20621;SDS011;10470;42.670;23.354;2023-07-08T11:29:28;6.10;;;5.50;;
20621;SDS011;10470;42.670;23.354;2023-07-08T11:32:04;6.03;;;5.53;;
20621;SDS011;10470;42.670;23.354;2023-07-08T11:34:35;5.43;;;4.93;;
20621;SDS011;10470;42.670;23.354;2023-07-08T11:37:05;5.53;;;5.03;;
20621;SDS011;10470;42.670;23.354;2023-07-08T11:39:42;5.53;;;5.13;;
20621;SDS011;10470;42.670;23.354;2023-07-08T11:42:16;5.37;;;4.87;;
20621;SDS011;10470;42.670;23.354;2023-07-08T11:45:05;6.27;;;4.90;;
20621;SDS011;10470;42.670;23.354;2023-07-08T11:47:54;6.40;;;5.80;;
20621;SDS011;10470;42.670;23.354;2023-07-08T11:50:37;7.13;;;5.60;;
20621;SDS011;10470;42.670;23.354;2023-07-08T11:53:10;5.43;;;4.93;;
20621;SDS011;10470;42.670;23.354;2023-07-08T11:58:51;5.97;;;5.13;;
20621;SDS011;10470;42.670;23.354;2023-07-08T12:01:38;7.03;;;6.33;;
20621;SDS011;10470;42.670;23.354;2023-07-08T12:04:33;6.37;;;5.77;;
20621;SDS011;10470;42.670;23.354;2023-07-08T12:07:17;4.60;;;4.10;;
20621;SDS011;10470;42.670;23.354;2023-07-08T12:10:00;4.90;;;4.50;;
20621;SDS011;10470;42.670;23.354;2023-07-08T12:12:36;8.07;;;5.37;;
20621;SDS011;10470;42.670;23.354;2023-07-08T12:15:22;6.73;;;5.47;;
20621;SDS011;10470;42.670;23.354;2023-07-08T12:18:15;5.17;;;4.60;;
20621;SDS011;10470;42.670;23.354;2023-07-08T12:20:46;4.40;;;4.10;;
20621;SDS011;10470;42.670;23.354;2023-07-08T12:23:18;5.07;;;4.30;;
20621;SDS011;10470;42.670;23.354;2023-07-08T12:25:51;6.63;;;4.43;;
20621;SDS011;10470;42.670;23.354;2023-07-08T12:28:21;4.97;;;4.53;;
20621;SDS011;10470;42.670;23.354;2023-07-08T12:30:50;4.60;;;4.20;;
20621;SDS011;10470;42.670;23.354;2023-07-08T12:33:27;4.13;;;3.33;;
20621;SDS011;10470;42.670;23.354;2023-07-08T12:36:02;4.30;;;3.90;;
20621;SDS011;10470;42.670;23.354;2023-07-08T12:38:33;4.63;;;4.10;;
20621;SDS011;10470;42.670;23.354;2023-07-08T12:41:09;7.43;;;4.17;;
20621;SDS011;10470;42.670;23.354;2023-07-08T12:43:41;4.83;;;4.37;;
20621;SDS011;10470;42.670;23.354;2023-07-08T12:46:11;4.77;;;4.23;;
20621;SDS011;10470;42.670;23.354;2023-07-08T12:48:44;3.90;;;3.60;;
20621;SDS011;10470;42.670;23.354;2023-07-08T12:51:18;8.30;;;3.83;;
20621;SDS011;10470;42.670;23.354;2023-07-08T12:53:51;4.00;;;3.17;;
20621;SDS011;10470;42.670;23.354;2023-07-08T12:56:21;5.07;;;3.60;;
20621;SDS011;10470;42.670;23.354;2023-07-08T12:58:54;5.03;;;3.40;;
20621;SDS011;10470;42.670;23.354;2023-07-08T13:01:26;4.70;;;3.50;;
20621;SDS011;10470;42.670;23.354;2023-07-08T13:03:59;3.30;;;3.00;;
20621;SDS011;10470;42.670;23.354;2023-07-08T13:06:33;4.57;;;3.40;;
20621;SDS011;10470;42.670;23.354;2023-07-08T13:09:06;4.60;;;3.20;;
20621;SDS011;10470;42.670;23.354;2023-07-08T13:11:53;7.03;;;3.60;;
20621;SDS011;10470;42.670;23.354;2023-07-08T13:14:24;4.17;;;3.77;;
20621;SDS011;10470;42.670;23.354;2023-07-08T13:16:53;4.30;;;3.10;;
20621;SDS011;10470;42.670;23.354;2023-07-08T13:19:24;5.73;;;3.80;;
20621;SDS011;10470;42.670;23.354;2023-07-08T13:21:54;3.60;;;3.30;;
20621;SDS011;10470;42.670;23.354;2023-07-08T13:24:25;3.90;;;3.50;;
20621;SDS011;10470;42.670;23.354;2023-07-08T13:27:03;3.77;;;3.40;;
20621;SDS011;10470;42.670;23.354;2023-07-08T13:29:37;3.20;;;3.00;;
20621;SDS011;10470;42.670;23.354;2023-07-08T13:32:11;4.70;;;3.63;;
20621;SDS011;10470;42.670;23.354;2023-07-08T13:34:41;4.60;;;4.20;;
20621;SDS011;10470;42.670;23.354;2023-07-08T13:37:11;6.37;;;3.63;;
20621;SDS011;10470;42.670;23.354;2023-07-08T13:39:44;4.20;;;2.90;;
20621;SDS011;10470;42.670;23.354;2023-07-08T13:42:13;4.00;;;3.60;;
20621;SDS011;10470;42.670;23.354;2023-07-08T13:44:44;3.67;;;3.37;;
20621;SDS011;10470;42.670;23.354;2023-07-08T13:47:26;4.50;;;4.07;;
20621;SDS011;10470;42.670;23.354;2023-07-08T13:52:59;4.43;;;3.43;;
20621;SDS011;10470;42.670;23.354;2023-07-08T13:55:29;4.40;;;3.60;;
20621;SDS011;10470;42.670;23.354;2023-07-08T13:58:00;5.37;;;3.10;;
20621;SDS011;10470;42.670;23.354;2023-07-08T14:00:30;6.53;;;3.37;;
20621;SDS011;10470;42.670;23.354;2023-07-08T14:03:00;5.30;;;3.47;;
20621;SDS011;10470;42.670;23.354;2023-07-08T14:05:30;5.23;;;3.20;;
20621;SDS011;10470;42.670;23.354;2023-07-08T14:08:00;3.40;;;3.00;;
20621;SDS011;10470;42.670;23.354;2023-07-08T14:10:30;3.70;;;3.20;;
20621;SDS011;10470;42.670;23.354;2023-07-08T14:12:59;4.70;;;3.17;;
20621;SDS011;10470;42.670;23.354;2023-07-08T14:15:29;3.50;;;3.20;;
20621;SDS011;10470;42.670;23.354;2023-07-08T14:18:02;3.93;;;3.23;;
20621;SDS011;10470;42.670;23.354;2023-07-08T14:20:32;3.27;;;2.97;;
20621;SDS011;10470;42.670;23.354;2023-07-08T14:23:03;4.17;;;3.70;;
20621;SDS011;10470;42.670;23.354;2023-07-08T14:25:33;4.50;;;3.20;;
20621;SDS011;10470;42.670;23.354;2023-07-08T14:28:00;3.80;;;3.10;;
20621;SDS011;10470;42.670;23.354;2023-07-08T14:30:30;3.60;;;3.10;;
20621;SDS011;10470;42.670;23.354;2023-07-08T14:33:01;3.70;;;3.37;;
20621;SDS011;10470;42.670;23.354;2023-07-08T14:35:32;3.83;;;3.37;;
20621;SDS011;10470;42.670;23.354;2023-07-08T14:38:02;3.33;;;3.03;;
20621;SDS011;10470;42.670;23.354;2023-07-08T14:40:34;3.73;;;3.40;;
20621;SDS011;10470;42.670;23.354;2023-07-08T14:45:48;3.60;;;3.30;;
20621;SDS011;10470;42.670;23.354;2023-07-08T14:48:20;5.13;;;3.20;;
20621;SDS011;10470;42.670;23.354;2023-07-08T14:50:50;6.10;;;3.77;;
20621;SDS011;10470;42.670;23.354;2023-07-08T14:53:20;5.57;;;3.47;;
20621;SDS011;10470;42.670;23.354;2023-07-08T14:55:51;5.00;;;3.60;;
20621;SDS011;10470;42.670;23.354;2023-07-08T14:58:23;4.53;;;3.53;;
20621;SDS011;10470;42.670;23.354;2023-07-08T15:00:55;4.03;;;3.30;;
20621;SDS011;10470;42.670;23.354;2023-07-08T15:03:25;4.83;;;3.10;;
20621;SDS011;10470;42.670;23.354;2023-07-08T15:05:55;3.47;;;3.10;;
20621;SDS011;10470;42.670;23.354;2023-07-08T15:08:23;4.80;;;3.43;;
20621;SDS011;10470;42.670;23.354;2023-07-08T15:10:53;3.40;;;3.10;;
20621;SDS011;10470;42.670;23.354;2023-07-08T15:13:24;3.57;;;3.00;;
20621;SDS011;10470;42.670;23.354;2023-07-08T15:15:56;3.90;;;3.50;;
20621;SDS011;10470;42.670;23.354;2023-07-08T15:18:26;7.53;;;3.70;;
20621;SDS011;10470;42.670;23.354;2023-07-08T15:20:57;5.53;;;3.73;;
20621;SDS011;10470;42.670;23.354;2023-07-08T15:23:28;3.70;;;3.30;;
20621;SDS011;10470;42.670;23.354;2023-07-08T15:25:58;7.87;;;3.70;;
20621;SDS011;10470;42.670;23.354;2023-07-08T15:28:44;4.23;;;3.83;;
20621;SDS011;10470;42.670;23.354;2023-07-08T15:31:22;5.07;;;3.63;;
20621;SDS011;10470;42.670;23.354;2023-07-08T15:33:52;4.97;;;3.30;;
20621;SDS011;10470;42.670;23.354;2023-07-08T15:36:23;5.27;;;3.40;;
20621;SDS011;10470;42.670;23.354;2023-07-08T15:38:53;5.40;;;3.63;;
20621;SDS011;10470;42.670;23.354;2023-07-08T15:41:25;6.43;;;3.80;;
20621;SDS011;10470;42.670;23.354;2023-07-08T15:43:57;3.90;;;3.50;;
20621;SDS011;10470;42.670;23.354;2023-07-08T15:46:26;5.30;;;3.53;;
20621;SDS011;10470;42.670;23.354;2023-07-08T15:49:09;6.17;;;3.37;;
20621;SDS011;10470;42.670;23.354;2023-07-08T15:51:41;4.07;;;3.60;;
20621;SDS011;10470;42.670;23.354;2023-07-08T15:54:12;6.33;;;3.80;;
20621;SDS011;10470;42.670;23.354;2023-07-08T15:56:43;6.17;;;3.80;;